Time;durP1;ratioP1;P1;durP2;ratioP2;P2;SDS_P1;SDS_P2;PMS_P1;PMS_P2;Temp;Humidity;BMP_temperature;BMP_pressure;BME280_temperature;BME280_humidity;BME280_pressure;Samples;Min_cycle;Max_cycle;Signal;HPM_P1;HPM_P2
2022/08/30 00:01:04;;;;;;;5.03;2.83;;;16.20;99.90;;;;;;4997410;28;20057;-71
2022/08/30 00:03:31;;;;;;;4.47;3.03;;;16.20;99.90;;;;;;4994285;28;20038;-71
2022/08/30 00:05:57;;;;;;;4.43;3.03;;;16.20;99.90;;;;;;5011825;28;20558;-71
2022/08/30 00:08:22;;;;;;;7.65;3.05;;;16.20;99.90;;;;;;4996219;28;20037;-71
2022/08/30 00:10:50;;;;;;;5.65;3.20;;;16.20;99.90;;;;;;4980507;28;20085;-71
2022/08/30 00:13:16;;;;;;;6.00;3.00;;;16.10;99.90;;;;;;5013508;28;20037;-71
2022/08/30 00:15:43;;;;;;;5.60;3.47;;;16.10;99.90;;;;;;4997158;28;20088;-71
2022/08/30 00:18:09;;;;;;;6.30;3.40;;;16.10;99.90;;;;;;5012683;28;20113;-71
2022/08/30 00:20:36;;;;;;;4.60;3.47;;;16.10;99.90;;;;;;4997367;28;20069;-71
2022/08/30 00:23:02;;;;;;;6.97;3.50;;;16.20;99.90;;;;;;4980695;28;20045;-72
2022/08/30 00:25:28;;;;;;;7.03;3.97;;;16.20;99.90;;;;;;4979403;28;20041;-71
2022/08/30 00:27:54;;;;;;;7.65;3.50;;;16.10;99.90;;;;;;4997328;28;20042;-71
2022/08/30 00:30:20;;;;;;;6.50;3.58;;;16.10;99.90;;;;;;5015665;28;20053;-71
2022/08/30 00:32:46;;;;;;;5.53;3.40;;;16.10;99.90;;;;;;4995213;28;20034;-72
2022/08/30 00:35:14;;;;;;;5.15;3.40;;;16.00;99.90;;;;;;5016257;28;20065;-71
2022/08/30 00:37:40;;;;;;;5.38;3.50;;;16.10;99.90;;;;;;4982495;28;20057;-71
2022/08/30 00:40:08;;;;;;;6.85;3.70;;;16.10;99.90;;;;;;4995768;28;20102;-71
2022/08/30 00:42:34;;;;;;;7.07;3.80;;;16.10;99.90;;;;;;4994807;28;20128;-71
2022/08/30 00:45:08;;;;;;;7.85;3.50;;;16.00;99.90;;;;;;4997264;28;20085;-71
2022/08/30 00:47:34;;;;;;;6.40;3.70;;;16.00;99.90;;;;;;5015244;28;20041;-71
2022/08/30 00:50:00;;;;;;;6.85;3.38;;;16.10;99.90;;;;;;5013585;28;20054;-71
2022/08/30 00:52:26;;;;;;;6.45;3.70;;;16.00;99.90;;;;;;5014744;28;20029;-71
2022/08/30 00:54:52;;;;;;;6.25;3.80;;;16.00;99.90;;;;;;4991665;28;20506;-71
2022/08/30 00:57:18;;;;;;;4.63;3.38;;;16.00;99.90;;;;;;5013777;28;20038;-71
2022/08/30 00:59:48;;;;;;;5.60;3.53;;;16.00;99.90;;;;;;4993508;28;20052;-70
2022/08/30 01:02:16;;;;;;;5.63;3.65;;;16.00;99.90;;;;;;4995238;28;20046;-71
2022/08/30 01:04:44;;;;;;;6.53;3.75;;;16.10;99.90;;;;;;4992184;28;20038;-71
2022/08/30 01:07:10;;;;;;;5.50;3.92;;;16.00;99.90;;;;;;4990508;28;20037;-71
2022/08/30 01:09:36;;;;;;;7.80;4.32;;;16.00;99.90;;;;;;4994611;28;20034;-71
2022/08/30 01:12:04;;;;;;;6.18;3.83;;;16.10;99.90;;;;;;5010523;28;20037;-71
2022/08/30 01:14:32;;;;;;;5.50;3.80;;;16.10;99.90;;;;;;4996562;28;20046;-71
2022/08/30 01:17:00;;;;;;;5.28;3.53;;;16.10;99.90;;;;;;4997297;28;20034;-72
2022/08/30 01:19:47;;;;;;;5.47;3.70;;;16.00;99.90;;;;;;4997116;28;20374;-71
2022/08/30 01:22:45;;;;;;;5.13;3.22;;;16.10;99.90;;;;;;5015927;28;20058;-71
2022/08/30 01:25:13;;;;;;;4.70;3.40;;;16.10;99.90;;;;;;4977561;28;20061;-71
2022/08/30 01:27:46;;;;;;;5.85;3.70;;;16.10;99.90;;;;;;4999730;28;20038;-71
2022/08/30 01:30:12;;;;;;;7.07;3.65;;;16.10;99.90;;;;;;5011147;28;20046;-71
2022/08/30 01:32:42;;;;;;;5.97;3.50;;;16.10;99.90;;;;;;4994870;28;20061;-71
2022/08/30 01:35:10;;;;;;;7.00;3.50;;;15.90;99.90;;;;;;5012067;28;20030;-71
2022/08/30 01:37:37;;;;;;;8.02;3.75;;;16.00;99.90;;;;;;5015316;28;20030;-71
2022/08/30 01:40:03;;;;;;;6.18;3.40;;;16.00;99.90;;;;;;5009743;28;20030;-71
2022/08/30 01:42:29;;;;;;;6.82;3.95;;;16.00;99.90;;;;;;4993657;28;20149;-71
2022/08/30 01:44:54;;;;;;;5.75;3.67;;;16.00;99.90;;;;;;4995308;28;20049;-71
2022/08/30 01:47:20;;;;;;;7.28;3.92;;;16.00;99.90;;;;;;4991068;28;20416;-71
2022/08/30 01:49:46;;;;;;;9.35;3.63;;;16.00;99.90;;;;;;4993678;28;20034;-71
2022/08/30 01:52:13;;;;;;;10.02;3.90;;;16.00;99.90;;;;;;4996093;28;20657;-71
2022/08/30 01:54:41;;;;;;;5.50;3.60;;;16.00;99.90;;;;;;5009981;28;20412;-71
2022/08/30 01:57:10;;;;;;;6.90;3.70;;;16.00;99.90;;;;;;4995843;28;20034;-71
2022/08/30 01:59:38;;;;;;;6.10;3.83;;;15.90;99.90;;;;;;5012878;28;20061;-71
2022/08/30 02:02:04;;;;;;;5.55;3.85;;;15.90;99.90;;;;;;5011040;28;20038;-71
2022/08/30 02:04:30;;;;;;;6.10;4.20;;;15.90;99.90;;;;;;4997809;28;20033;-71
2022/08/30 02:06:56;;;;;;;8.52;4.45;;;15.90;99.90;;;;;;4993718;28;20087;-71
2022/08/30 02:09:21;;;;;;;7.70;4.55;;;15.80;99.90;;;;;;4995542;28;20046;-71
2022/08/30 02:11:47;;;;;;;5.07;3.90;;;15.80;99.90;;;;;;4995505;28;20041;-71
2022/08/30 02:14:13;;;;;;;10.88;4.40;;;15.80;99.90;;;;;;5010633;28;20087;-71
2022/08/30 02:16:39;;;;;;;7.28;4.13;;;15.80;99.90;;;;;;5011740;28;20516;-71
2022/08/30 02:19:06;;;;;;;6.57;4.45;;;15.70;99.90;;;;;;4994546;28;20484;-71
2022/08/30 02:21:32;;;;;;;9.52;4.45;;;15.70;99.90;;;;;;5009567;28;20041;-71
2022/08/30 02:23:58;;;;;;;5.53;4.20;;;15.60;99.90;;;;;;4995387;28;20038;-71
2022/08/30 02:26:24;;;;;;;7.30;4.20;;;15.60;99.90;;;;;;4992574;28;20040;-71
2022/08/30 02:28:51;;;;;;;7.72;4.70;;;15.60;99.90;;;;;;4995576;28;20046;-71
2022/08/30 02:31:18;;;;;;;5.63;4.53;;;15.50;99.90;;;;;;5013843;28;20034;-71
2022/08/30 02:33:44;;;;;;;5.53;4.43;;;15.50;99.90;;;;;;4977975;28;20042;-71
2022/08/30 02:36:10;;;;;;;7.68;4.45;;;15.50;99.90;;;;;;4998369;28;20068;-71
2022/08/30 02:38:36;;;;;;;5.88;4.45;;;15.50;99.90;;;;;;5009097;28;20080;-71
2022/08/30 02:41:01;;;;;;;7.03;4.82;;;15.50;99.90;;;;;;4990398;28;20034;-71
2022/08/30 02:43:27;;;;;;;6.03;4.43;;;15.40;99.90;;;;;;4992395;28;20041;-70
2022/08/30 02:45:53;;;;;;;6.55;4.78;;;15.50;99.90;;;;;;5014591;28;20448;-71
2022/08/30 02:48:19;;;;;;;6.60;4.63;;;15.50;99.90;;;;;;5009845;28;20069;-71
2022/08/30 02:50:50;;;;;;;7.55;4.60;;;15.50;99.90;;;;;;5009264;28;20041;-70
2022/08/30 02:53:16;;;;;;;6.32;4.50;;;15.50;99.90;;;;;;4989144;28;20122;-70
2022/08/30 02:55:42;;;;;;;7.20;5.03;;;15.50;99.90;;;;;;5009722;28;20030;-71
2022/08/30 02:58:09;;;;;;;7.50;4.93;;;15.50;99.90;;;;;;4979776;28;20057;-71
2022/08/30 03:00:36;;;;;;;7.40;4.80;;;15.50;99.90;;;;;;5010738;28;20438;-71
2022/08/30 03:03:03;;;;;;;8.43;4.50;;;15.50;99.90;;;;;;4970297;28;20073;-71
2022/08/30 03:05:31;;;;;;;5.78;4.95;;;15.50;99.90;;;;;;5011177;28;20042;-71
2022/08/30 03:07:58;;;;;;;7.97;4.80;;;15.50;99.90;;;;;;4993552;28;20064;-71
2022/08/30 03:10:29;;;;;;;6.95;5.30;;;15.50;99.90;;;;;;5010734;28;20034;-71
2022/08/30 03:12:55;;;;;;;6.82;5.10;;;15.50;99.90;;;;;;5012280;28;20030;-71
2022/08/30 03:15:24;;;;;;;6.85;5.22;;;15.50;99.90;;;;;;5006920;28;20046;-71
2022/08/30 03:17:51;;;;;;;8.98;5.50;;;15.40;99.90;;;;;;5010014;28;20029;-71
2022/08/30 03:20:18;;;;;;;6.57;4.97;;;15.40;99.90;;;;;;4980317;28;20072;-71
2022/08/30 03:22:44;;;;;;;6.75;4.82;;;15.40;99.90;;;;;;4994607;28;20065;-71
2022/08/30 03:25:09;;;;;;;5.85;4.95;;;15.30;99.90;;;;;;5010213;28;20061;-71
2022/08/30 03:27:35;;;;;;;8.20;5.43;;;15.30;99.90;;;;;;5010351;28;20037;-71
2022/08/30 03:30:01;;;;;;;7.32;5.40;;;15.30;99.90;;;;;;5011393;28;20034;-71
2022/08/30 03:32:27;;;;;;;6.20;5.00;;;15.30;99.90;;;;;;4984749;28;20100;-71
2022/08/30 03:34:53;;;;;;;6.97;4.95;;;15.20;99.90;;;;;;5011902;28;20053;-71
2022/08/30 03:37:19;;;;;;;7.25;5.35;;;15.20;99.90;;;;;;4979989;28;20034;-71
2022/08/30 03:39:45;;;;;;;8.50;5.15;;;15.10;99.90;;;;;;4994506;28;20046;-71
2022/08/30 03:42:11;;;;;;;9.85;5.10;;;15.10;99.90;;;;;;5008755;28;20104;-71
2022/08/30 03:44:36;;;;;;;6.95;4.78;;;15.00;99.90;;;;;;4990773;28;20093;-71
2022/08/30 03:47:03;;;;;;;6.72;5.28;;;14.90;99.90;;;;;;4991886;28;20034;-71
2022/08/30 03:49:30;;;;;;;5.88;5.05;;;14.90;99.90;;;;;;4993962;28;20117;-71
2022/08/30 03:51:56;;;;;;;7.60;5.40;;;14.90;99.90;;;;;;4982402;28;20469;-71
2022/08/30 03:54:22;;;;;;;8.65;5.45;;;14.80;99.90;;;;;;4995827;28;20040;-71
2022/08/30 03:56:47;;;;;;;6.85;5.70;;;14.80;99.90;;;;;;4982259;28;20041;-72
2022/08/30 03:59:13;;;;;;;6.75;5.35;;;14.80;99.90;;;;;;4994898;28;20058;-71
2022/08/30 04:01:40;;;;;;;9.90;5.47;;;14.70;99.90;;;;;;4999567;28;20087;-71
2022/08/30 04:04:07;;;;;;;8.23;6.20;;;14.70;99.90;;;;;;4996276;28;20088;-71
2022/08/30 04:06:33;;;;;;;6.30;5.68;;;14.70;99.90;;;;;;5012271;28;20042;-71
2022/08/30 04:08:59;;;;;;;8.05;5.95;;;14.70;99.90;;;;;;4992769;28;20045;-71
2022/08/30 04:11:25;;;;;;;7.65;5.78;;;14.60;99.90;;;;;;5014860;28;20044;-71
2022/08/30 04:13:52;;;;;;;6.38;5.60;;;14.60;99.90;;;;;;4998194;28;20068;-71
2022/08/30 04:16:18;;;;;;;10.30;5.82;;;14.60;99.90;;;;;;5012942;28;20037;-71
2022/08/30 04:18:44;;;;;;;10.40;6.10;;;14.60;99.90;;;;;;5016980;28;20041;-71
2022/08/30 04:21:10;;;;;;;9.98;5.90;;;14.50;99.90;;;;;;4997812;28;20046;-72
2022/08/30 04:23:35;;;;;;;8.27;6.05;;;14.50;99.90;;;;;;5011821;28;20109;-71
2022/08/30 04:26:01;;;;;;;10.00;5.88;;;14.40;99.90;;;;;;5016184;28;20033;-71
2022/08/30 04:28:27;;;;;;;9.82;6.18;;;14.40;99.90;;;;;;4980071;28;20068;-71
2022/08/30 04:30:53;;;;;;;7.45;5.60;;;14.40;99.90;;;;;;4995584;28;20048;-70
2022/08/30 04:33:18;;;;;;;7.70;5.80;;;14.40;99.90;;;;;;4979425;28;20489;-71
2022/08/30 04:35:47;;;;;;;6.47;5.80;;;14.30;99.90;;;;;;4993090;28;20091;-71
2022/08/30 04:38:15;;;;;;;8.45;6.47;;;14.20;99.90;;;;;;4983836;28;20045;-71
2022/08/30 04:40:42;;;;;;;11.73;6.97;;;14.20;99.90;;;;;;5011435;28;20057;-71
2022/08/30 04:43:11;;;;;;;7.13;6.40;;;14.20;99.90;;;;;;4995459;28;20076;-71
2022/08/30 04:45:41;;;;;;;7.75;6.05;;;14.10;99.90;;;;;;4990514;28;20120;-71
2022/08/30 04:48:07;;;;;;;10.15;6.57;;;14.10;99.90;;;;;;4989589;28;20042;-71
2022/08/30 04:50:33;;;;;;;10.60;6.70;;;14.10;99.90;;;;;;5005878;28;20137;-71
2022/08/30 04:52:58;;;;;;;9.73;6.43;;;14.10;99.90;;;;;;4990893;28;20041;-71
2022/08/30 04:55:25;;;;;;;8.73;6.88;;;14.10;99.90;;;;;;4989692;28;20069;-71
2022/08/30 04:57:51;;;;;;;11.02;7.00;;;14.00;99.90;;;;;;4987496;28;20127;-71
2022/08/30 05:00:21;;;;;;;7.35;6.63;;;14.00;99.90;;;;;;4988445;28;20048;-71
2022/08/30 05:02:47;;;;;;;8.77;6.57;;;14.00;99.90;;;;;;4983844;28;20033;-71
2022/08/30 05:07:58;;;;;;;7.05;6.05;;;14.00;99.90;;;;;;4987576;28;20046;-71
2022/08/30 05:10:26;;;;;;;6.60;6.00;;;13.90;99.90;;;;;;4988280;28;20041;-71
2022/08/30 05:12:52;;;;;;;9.82;6.53;;;13.90;99.90;;;;;;4988266;28;20750;-71
2022/08/30 05:15:18;;;;;;;10.15;6.60;;;13.90;99.90;;;;;;4988524;28;20037;-71
2022/08/30 05:17:44;;;;;;;13.38;5.78;;;13.90;99.90;;;;;;5006512;28;20042;-72
2022/08/30 05:20:11;;;;;;;9.57;6.07;;;13.90;99.90;;;;;;4992607;28;20132;-71
2022/08/30 05:22:39;;;;;;;7.47;6.60;;;13.90;99.90;;;;;;4989611;28;20045;-71
2022/08/30 05:25:05;;;;;;;12.32;6.60;;;13.90;99.90;;;;;;4989186;28;20073;-72
2022/08/30 05:27:31;;;;;;;8.98;6.90;;;13.90;99.90;;;;;;4991191;28;20097;-71
2022/08/30 05:29:57;;;;;;;8.63;6.82;;;13.90;99.90;;;;;;4988941;28;20046;-71
2022/08/30 05:32:23;;;;;;;10.00;7.05;;;13.90;99.90;;;;;;5003258;28;20038;-72
2022/08/30 05:34:49;;;;;;;7.32;6.57;;;13.90;99.90;;;;;;4987492;28;20073;-71
2022/08/30 05:37:15;;;;;;;7.60;6.90;;;13.90;99.90;;;;;;4971116;28;20077;-71
2022/08/30 05:39:40;;;;;;;12.05;6.80;;;13.90;99.90;;;;;;4988111;28;20046;-72
2022/08/30 05:42:06;;;;;;;7.00;6.18;;;13.90;99.90;;;;;;4986189;28;20061;-71
2022/08/30 05:44:31;;;;;;;7.15;6.45;;;14.00;99.90;;;;;;5004569;28;20064;-71
2022/08/30 05:46:57;;;;;;;9.43;7.18;;;14.00;99.90;;;;;;5002927;28;20046;-71
2022/08/30 05:49:23;;;;;;;9.00;6.97;;;14.00;99.90;;;;;;4986340;28;20081;-71
2022/08/30 05:51:48;;;;;;;8.02;6.85;;;14.00;99.90;;;;;;5002379;28;20424;-70
2022/08/30 05:54:15;;;;;;;9.80;6.97;;;14.10;99.90;;;;;;4984716;28;20037;-71
2022/08/30 05:56:47;;;;;;;7.80;7.00;;;14.10;99.90;;;;;;5001357;28;20049;-71
2022/08/30 05:59:13;;;;;;;11.77;7.67;;;14.10;99.90;;;;;;4985210;28;20413;-71
2022/08/30 06:01:41;;;;;;;8.10;7.30;;;14.10;99.90;;;;;;4969988;28;20300;-71
2022/08/30 06:04:09;;;;;;;11.65;7.65;;;14.20;99.90;;;;;;5001829;28;20109;-71
2022/08/30 06:06:37;;;;;;;9.20;7.47;;;14.20;99.90;;;;;;4986020;28;20796;-71
2022/08/30 06:09:04;;;;;;;12.82;7.55;;;14.20;99.90;;;;;;4985531;28;20038;-71
2022/08/30 06:11:30;;;;;;;13.07;8.05;;;14.30;99.90;;;;;;4990299;28;20030;-71
2022/08/30 06:13:55;;;;;;;8.82;6.88;;;14.30;99.90;;;;;;4983667;28;20071;-71
2022/08/30 06:16:24;;;;;;;8.73;7.13;;;14.40;99.90;;;;;;4970435;28;20087;-70
2022/08/30 06:18:51;;;;;;;11.07;7.13;;;14.40;99.90;;;;;;4988221;28;20042;-71
2022/08/30 06:21:17;;;;;;;8.40;6.38;;;14.50;99.90;;;;;;5005155;28;20508;-71
2022/08/30 06:23:43;;;;;;;8.77;6.60;;;14.60;99.90;;;;;;4988127;28;20045;-71
2022/08/30 06:26:09;;;;;;;7.47;6.47;;;14.60;99.90;;;;;;4991621;28;20096;-71
2022/08/30 06:28:34;;;;;;;10.30;6.47;;;14.60;99.90;;;;;;5007229;28;20405;-71
2022/08/30 06:31:00;;;;;;;11.10;5.90;;;14.70;99.90;;;;;;4991607;28;20038;-71
2022/08/30 06:33:26;;;;;;;10.68;5.95;;;14.70;99.90;;;;;;4990761;28;20037;-71
2022/08/30 06:35:51;;;;;;;7.97;5.60;;;14.70;99.90;;;;;;4985574;28;20156;-71
2022/08/30 06:38:17;;;;;;;5.57;4.68;;;14.80;99.90;;;;;;4985206;28;20446;-71
2022/08/30 06:40:43;;;;;;;7.30;5.35;;;14.90;99.90;;;;;;4990612;28;20054;-71
2022/08/30 06:43:08;;;;;;;7.05;5.00;;;14.90;99.90;;;;;;5008827;28;20040;-71
2022/08/30 06:45:35;;;;;;;11.20;4.85;;;15.00;99.90;;;;;;4991884;28;20037;-71
2022/08/30 06:48:01;;;;;;;6.32;5.13;;;15.00;99.90;;;;;;4986521;28;20459;-71
2022/08/30 06:50:27;;;;;;;8.75;4.70;;;15.10;99.90;;;;;;4991398;28;20068;-71
2022/08/30 06:52:52;;;;;;;7.72;4.55;;;15.20;99.90;;;;;;4990402;28;20551;-71
2022/08/30 06:55:18;;;;;;;6.82;4.30;;;15.20;99.90;;;;;;4991731;28;20784;-71
2022/08/30 06:57:45;;;;;;;10.93;4.57;;;15.30;99.90;;;;;;4990146;28;20511;-71
2022/08/30 07:00:14;;;;;;;7.15;4.07;;;15.40;99.90;;;;;;4976050;28;20046;-71
2022/08/30 07:02:40;;;;;;;5.47;3.85;;;15.40;99.90;;;;;;5008228;28;20033;-71
2022/08/30 07:05:07;;;;;;;6.18;3.70;;;15.50;99.90;;;;;;4990755;28;20038;-71
2022/08/30 07:07:33;;;;;;;6.35;3.78;;;15.60;99.90;;;;;;4990493;28;20053;-71
2022/08/30 07:10:02;;;;;;;4.05;3.17;;;15.70;99.90;;;;;;5007714;28;20046;-71
2022/08/30 07:12:29;;;;;;;7.72;2.90;;;15.70;99.90;;;;;;4992092;28;20049;-71
2022/08/30 07:14:54;;;;;;;4.50;2.75;;;15.80;99.90;;;;;;5006379;28;20073;-71
2022/08/30 07:20:05;;;;;;;4.72;2.40;;;16.00;99.90;;;;;;5006434;28;20077;-72
2022/08/30 07:22:32;;;;;;;4.03;2.38;;;16.10;99.90;;;;;;4986234;28;20052;-72
2022/08/30 07:24:58;;;;;;;3.75;2.30;;;16.30;99.90;;;;;;4991596;28;20080;-72
2022/08/30 07:27:24;;;;;;;5.18;2.20;;;16.30;99.90;;;;;;5008478;28;20433;-72
2022/08/30 07:29:49;;;;;;;3.78;2.28;;;16.50;99.90;;;;;;5008895;28;20603;-72
2022/08/30 07:32:15;;;;;;;3.78;2.30;;;16.60;99.90;;;;;;4991909;28;20062;-72
2022/08/30 07:34:41;;;;;;;4.88;1.95;;;16.70;99.90;;;;;;5005153;28;20034;-72
2022/08/30 07:37:07;;;;;;;5.38;2.20;;;16.80;99.90;;;;;;4994490;28;20038;-72
2022/08/30 07:39:32;;;;;;;4.53;1.75;;;17.00;99.90;;;;;;4995648;28;20405;-72
2022/08/30 07:41:58;;;;;;;6.40;1.88;;;17.10;99.90;;;;;;4996298;28;20042;-71
2022/08/30 07:44:23;;;;;;;7.03;2.00;;;17.20;99.90;;;;;;5011492;28;20080;-71
2022/08/30 07:46:49;;;;;;;3.15;1.63;;;17.30;99.90;;;;;;4995215;28;20088;-72
2022/08/30 07:49:15;;;;;;;4.25;1.73;;;17.50;99.90;;;;;;5013132;28;20077;-72
2022/08/30 07:51:41;;;;;;;3.80;1.50;;;17.60;99.90;;;;;;4995586;28;20084;-72
2022/08/30 07:54:07;;;;;;;4.97;2.00;;;17.70;99.90;;;;;;4994768;28;20038;-72
2022/08/30 07:56:34;;;;;;;3.65;1.70;;;17.70;99.90;;;;;;5014322;28;20381;-72
2022/08/30 07:58:59;;;;;;;6.75;1.92;;;17.90;99.90;;;;;;5009294;28;20092;-72
2022/08/30 08:01:25;;;;;;;5.53;2.00;;;17.90;99.90;;;;;;4993218;28;20046;-72
2022/08/30 08:03:51;;;;;;;3.28;1.48;;;18.10;99.90;;;;;;4991958;28;20489;-72
2022/08/30 08:06:19;;;;;;;3.80;1.60;;;18.20;99.90;;;;;;4994409;28;22591;-72
2022/08/30 08:08:45;;;;;;;3.35;1.50;;;18.30;99.90;;;;;;4994521;28;20097;-72
2022/08/30 08:11:17;;;;;;;6.72;1.42;;;18.40;99.90;;;;;;4991735;28;20047;-72
2022/08/30 08:13:45;;;;;;;4.22;1.58;;;18.50;99.90;;;;;;4994822;28;20038;-72
2022/08/30 08:16:10;;;;;;;3.85;1.80;;;18.60;99.90;;;;;;4992928;28;20108;-72
2022/08/30 08:18:36;;;;;;;5.90;1.60;;;18.70;99.90;;;;;;5006681;28;20053;-72
2022/08/30 08:21:02;;;;;;;4.07;1.52;;;18.80;99.90;;;;;;5011143;28;20030;-72
2022/08/30 08:23:28;;;;;;;5.50;1.70;;;18.90;99.90;;;;;;5005286;28;20065;-72
2022/08/30 08:25:54;;;;;;;2.47;1.17;;;19.10;99.90;;;;;;4977618;28;20487;-72
2022/08/30 08:28:20;;;;;;;2.78;1.40;;;19.20;99.90;;;;;;5015326;28;20030;-72
2022/08/30 08:30:48;;;;;;;2.95;1.30;;;19.30;99.90;;;;;;5009093;28;20041;-72
2022/08/30 08:33:15;;;;;;;4.13;1.13;;;19.40;99.90;;;;;;4993591;28;20034;-72
2022/08/30 08:35:41;;;;;;;6.18;1.48;;;19.50;99.90;;;;;;4993739;28;20161;-72
2022/08/30 08:38:07;;;;;;;2.17;1.10;;;19.60;99.90;;;;;;4994526;28;20053;-72
2022/08/30 08:40:46;;;;;;;3.67;1.45;;;19.60;99.90;;;;;;4992219;28;20045;-72
2022/08/30 08:43:16;;;;;;;2.13;1.35;;;19.70;99.90;;;;;;4993157;28;20042;-73
2022/08/30 08:45:57;;;;;;;3.50;1.58;;;19.70;99.90;;;;;;5002070;28;20117;-73
2022/08/30 08:48:38;;;;;;;3.80;1.42;;;19.80;99.90;;;;;;4992775;28;20042;-73
2022/08/30 08:54:00;;;;;;;2.63;1.23;;;19.90;99.90;;;;;;4987649;28;20124;-73
2022/08/30 08:56:25;;;;;;;5.18;1.33;;;20.00;99.90;;;;;;4985662;28;20049;-73
2022/08/30 08:58:56;;;;;;;2.03;1.20;;;20.10;99.90;;;;;;5005867;28;20037;-73
2022/08/30 09:01:26;;;;;;;2.92;1.23;;;20.10;99.90;;;;;;4993476;28;20493;-73
2022/08/30 09:03:54;;;;;;;1.83;1.30;;;20.10;99.90;;;;;;5011934;28;20038;-73
2022/08/30 09:06:47;;;;;;;2.35;1.27;;;20.20;99.90;;;;;;4990131;28;20037;-73
2022/08/30 09:09:17;;;;;;;5.50;1.40;;;20.40;99.90;;;;;;4991215;28;20053;-73
2022/08/30 09:11:42;;;;;;;6.07;1.55;;;20.50;99.90;;;;;;4994916;28;20033;-74
2022/08/30 09:14:13;;;;;;;2.83;1.23;;;20.50;99.90;;;;;;5008541;28;20121;-74
2022/08/30 09:16:51;;;;;;;3.78;1.50;;;20.60;99.90;;;;;;5001276;28;20089;-73
2022/08/30 09:19:35;;;;;;;2.67;1.30;;;20.70;99.90;;;;;;4991975;28;20037;-73
2022/08/30 09:22:12;;;;;;;4.93;1.33;;;20.80;99.90;;;;;;4989733;28;20129;-73
2022/08/30 09:24:45;;;;;;;7.40;1.50;;;20.90;99.90;;;;;;4988581;28;20050;-73
2022/08/30 09:27:26;;;;;;;5.43;1.40;;;21.00;99.90;;;;;;4995485;28;20479;-73
2022/08/30 09:30:25;;;;;;;3.38;1.40;;;21.10;99.90;;;;;;4984660;28;20037;-73
2022/08/30 09:32:57;;;;;;;3.25;1.58;;;21.30;99.90;;;;;;4987699;28;20041;-73
2022/08/30 09:35:41;;;;;;;2.33;1.20;;;21.40;98.60;;;;;;4993504;28;20050;-73
2022/08/30 09:38:09;;;;;;;5.82;1.45;;;21.60;97.30;;;;;;4999480;28;20038;-73
2022/08/30 09:40:43;;;;;;;3.45;1.02;;;21.70;97.50;;;;;;4988806;28;20104;-73
2022/08/30 09:43:17;;;;;;;2.45;1.40;;;21.80;95.70;;;;;;4990962;28;20076;-74
2022/08/30 09:45:46;;;;;;;3.08;1.40;;;21.80;96.10;;;;;;4988049;28;20374;-73
2022/08/30 09:48:31;;;;;;;1.52;1.15;;;21.90;95.80;;;;;;5006379;28;20128;-73
2022/08/30 09:51:09;;;;;;;5.47;1.20;;;22.10;94.90;;;;;;4994188;28;20073;-73
2022/08/30 09:54:10;;;;;;;4.43;1.27;;;22.30;93.50;;;;;;5006484;28;20038;-73
2022/08/30 09:57:11;;;;;;;3.25;1.30;;;22.30;92.30;;;;;;4972571;28;20089;-73
2022/08/30 09:59:56;;;;;;;2.63;1.23;;;22.40;92.00;;;;;;4983377;28;20042;-73
2022/08/30 10:02:28;;;;;;;2.65;1.13;;;22.50;92.30;;;;;;4992402;28;20085;-73
2022/08/30 10:05:29;;;;;;;1.50;1.08;;;22.70;92.10;;;;;;5009137;28;20042;-73
2022/08/30 10:08:07;;;;;;;2.15;1.23;;;22.80;92.60;;;;;;5009928;28;20116;-73
2022/08/30 10:10:40;;;;;;;4.20;1.38;;;22.90;92.50;;;;;;5012048;28;20621;-73
2022/08/30 10:13:28;;;;;;;5.88;1.20;;;23.10;92.20;;;;;;4993814;28;20165;-73
2022/08/30 10:16:01;;;;;;;2.08;1.15;;;23.30;91.70;;;;;;4986412;28;20038;-72
2022/08/30 10:18:46;;;;;;;4.30;1.30;;;23.50;91.50;;;;;;4978551;28;20038;-73
2022/08/30 10:21:18;;;;;;;2.75;1.23;;;23.70;91.50;;;;;;4994514;28;20317;-72
2022/08/30 10:23:49;;;;;;;4.28;1.30;;;23.80;88.90;;;;;;4990795;28;20049;-73
2022/08/30 10:26:20;;;;;;;3.67;1.10;;;23.90;87.80;;;;;;4991835;28;20042;-73
2022/08/30 10:28:54;;;;;;;2.38;1.08;;;23.90;87.30;;;;;;4989401;28;20045;-73
2022/08/30 10:31:30;;;;;;;2.85;1.00;;;24.10;85.20;;;;;;4983273;28;20038;-73
2022/08/30 10:34:03;;;;;;;3.22;1.30;;;24.20;84.20;;;;;;4985273;28;20153;-73
2022/08/30 10:36:40;;;;;;;1.73;1.15;;;24.20;84.30;;;;;;4998987;28;20074;-73
2022/08/30 10:39:07;;;;;;;4.13;1.23;;;24.30;84.30;;;;;;4992892;28;20046;-73
2022/08/30 10:41:40;;;;;;;1.95;1.25;;;24.30;83.90;;;;;;5010728;28;20061;-73
2022/08/30 10:44:18;;;;;;;2.40;1.33;;;24.50;81.80;;;;;;4994910;28;20112;-73
2022/08/30 10:47:13;;;;;;;4.25;1.35;;;24.60;80.90;;;;;;5005187;28;20076;-73
2022/08/30 10:49:44;;;;;;;1.83;1.00;;;24.80;79.30;;;;;;5007425;28;20500;-73
2022/08/30 10:52:24;;;;;;;3.25;1.30;;;24.80;77.50;;;;;;4979646;28;20090;-73
2022/08/30 10:54:59;;;;;;;1.20;1.00;;;24.80;78.10;;;;;;4990340;28;20124;-73
2022/08/30 10:57:25;;;;;;;1.65;1.00;;;24.90;76.40;;;;;;5002561;28;20038;-73
2022/08/30 10:59:57;;;;;;;4.68;0.93;;;25.00;75.60;;;;;;5003976;28;20038;-73
2022/08/30 11:02:54;;;;;;;2.30;1.20;;;25.10;75.90;;;;;;4984226;28;20125;-73
2022/08/30 11:05:25;;;;;;;5.15;1.10;;;25.20;75.50;;;;;;4992359;28;20050;-73
2022/08/30 11:07:57;;;;;;;2.72;1.13;;;25.30;71.80;;;;;;4977651;28;20552;-73
2022/08/30 11:10:48;;;;;;;1.33;1.10;;;25.50;71.70;;;;;;4991864;28;20049;-73
2022/08/30 11:13:22;;;;;;;2.03;0.90;;;25.50;71.70;;;;;;4974106;28;20035;-73
2022/08/30 11:15:56;;;;;;;3.22;1.08;;;25.60;71.50;;;;;;4985799;28;20049;-73
2022/08/30 11:18:23;;;;;;;2.20;1.10;;;25.70;70.70;;;;;;4991825;28;20481;-73
2022/08/30 11:20:52;;;;;;;1.85;1.13;;;25.90;72.30;;;;;;5006694;28;20082;-73
2022/08/30 11:23:35;;;;;;;2.60;1.02;;;25.90;72.10;;;;;;5004094;28;20046;-73
2022/08/30 11:26:04;;;;;;;2.20;1.15;;;26.00;71.60;;;;;;5010192;28;20512;-73
2022/08/30 11:28:36;;;;;;;2.63;0.98;;;26.20;71.00;;;;;;4982892;28;20648;-73
2022/08/30 11:31:21;;;;;;;1.55;0.90;;;26.50;67.90;;;;;;5007879;28;20493;-73
2022/08/30 11:33:50;;;;;;;5.03;1.33;;;26.50;66.20;;;;;;5003064;28;20034;-73
2022/08/30 11:36:27;;;;;;;2.65;0.90;;;26.50;64.10;;;;;;5001496;28;22261;-73
2022/08/30 11:38:53;;;;;;;3.58;1.20;;;26.60;62.60;;;;;;4984722;28;20497;-73
2022/08/30 11:41:32;;;;;;;3.95;1.10;;;26.50;64.50;;;;;;5003555;28;20038;-73
2022/08/30 11:44:23;;;;;;;4.05;1.20;;;26.60;64.30;;;;;;4981790;28;20042;-73
2022/08/30 11:46:52;;;;;;;4.63;1.10;;;26.60;66.00;;;;;;5001397;28;20085;-73
2022/08/30 11:49:17;;;;;;;1.75;1.08;;;26.70;62.60;;;;;;4993477;28;20493;-73
2022/08/30 11:52:03;;;;;;;10.68;1.30;;;26.80;61.70;;;;;;4986883;28;20126;-73
2022/08/30 11:54:37;;;;;;;2.50;1.20;;;26.80;62.70;;;;;;4997339;28;20527;-73
2022/08/30 11:57:25;;;;;;;3.65;1.20;;;26.80;60.90;;;;;;4990656;28;20493;-73
2022/08/30 12:00:05;;;;;;;1.70;1.17;;;26.80;61.90;;;;;;4981718;28;20065;-73
2022/08/30 12:03:25;;;;;;;2.13;1.20;;;26.90;62.60;;;;;;4988732;28;20096;-72
2022/08/30 12:05:55;;;;;;;3.40;1.10;;;26.90;61.00;;;;;;4999076;28;20396;-72
2022/08/30 12:08:32;;;;;;;3.00;1.00;;;27.00;60.30;;;;;;5003598;28;20401;-72
2022/08/30 12:11:07;;;;;;;5.88;1.08;;;27.20;61.00;;;;;;4984265;28;20544;-73
2022/08/30 12:13:33;;;;;;;2.00;1.10;;;27.30;63.20;;;;;;4994123;28;20551;-73
2022/08/30 12:16:13;;;;;;;2.55;1.30;;;27.40;61.90;;;;;;5011804;28;20120;-72
2022/08/30 12:18:51;;;;;;;1.77;0.98;;;27.60;60.70;;;;;;4993709;28;20034;-72
2022/08/30 12:21:16;;;;;;;1.95;1.05;;;27.60;60.50;;;;;;4987122;28;20447;-72
2022/08/30 12:24:00;;;;;;;2.78;1.00;;;27.70;61.10;;;;;;4986784;28;20034;-73
2022/08/30 12:26:26;;;;;;;1.45;0.80;;;27.80;60.90;;;;;;4993376;28;20120;-73
2022/08/30 12:29:13;;;;;;;2.00;1.10;;;27.90;58.90;;;;;;4991530;28;20556;-73
2022/08/30 12:31:58;;;;;;;1.38;0.82;;;28.00;59.50;;;;;;4982073;28;20045;-73
2022/08/30 12:34:31;;;;;;;5.60;1.10;;;28.20;60.40;;;;;;5002190;28;20592;-73
2022/08/30 12:37:18;;;;;;;4.88;1.05;;;28.30;60.10;;;;;;5006186;28;20042;-73
2022/08/30 12:39:44;;;;;;;2.53;0.95;;;28.40;60.10;;;;;;5005366;28;20041;-73
2022/08/30 12:42:28;;;;;;;2.80;1.00;;;28.50;60.50;;;;;;4988743;28;20165;-73
2022/08/30 12:44:57;;;;;;;3.33;0.90;;;28.60;60.20;;;;;;4985526;28;20401;-73
2022/08/30 12:47:46;;;;;;;2.13;0.98;;;28.50;59.80;;;;;;5007684;28;20413;-73
2022/08/30 12:50:19;;;;;;;2.00;1.02;;;28.60;57.20;;;;;;4996166;28;20467;-72
2022/08/30 12:52:54;;;;;;;2.15;0.88;;;28.60;57.90;;;;;;4990033;28;20117;-72
2022/08/30 12:55:23;;;;;;;4.85;0.95;;;28.80;59.00;;;;;;4997131;28;20389;-72
2022/08/30 12:58:06;;;;;;;7.03;1.10;;;28.90;58.20;;;;;;4992983;28;20045;-72
2022/08/30 13:00:40;;;;;;;4.70;1.00;;;28.80;59.90;;;;;;4994671;28;20508;-72
2022/08/30 13:03:26;;;;;;;1.25;0.80;;;28.80;58.30;;;;;;5010131;28;20400;-72
2022/08/30 13:05:53;;;;;;;1.33;1.00;;;29.00;58.20;;;;;;4994229;28;20038;-72
2022/08/30 13:08:40;;;;;;;6.38;1.00;;;29.10;58.40;;;;;;4982729;28;20486;-73